CYXZ

Details ICAO CYXZ (YXZ)
Name WAWA
Region Canada
Timezone America/Toronto (UTC-4.0)
Plans Departing 10
Arriving 17
Stats Elevation 942 ft / 287 m (AMSL)
Location 47.966700° -84.786700°
Runways 1
Magnetic Variation 7.568° W
Sunrise 2018-10-17 12:02:23 UTC / 2018-10-17 08:02:23 Local
Sunset 2018-10-17 22:48:51 UTC / 2018-10-17 18:48:51 Local
Advertisement - Login to hide

Runways

ID Width Length Bearing (true/mag) Surface Threshold Overrun Markings Lighting
03 100 ft / 30 m 4,422 ft / 1,348 m 23.52° / 31.08° ASPHALT 0 ft / 0 m 0 ft / 0 m APP EDGE THRESHOLD REIL-OMNI
21 100 ft / 30 m 4,422 ft / 1,348 m 203.52° / 211.09° ASPHALT 689 ft / 210 m 0 ft / 0 m APP EDGE THRESHOLD REIL-OMNI

Map

Weather


0- 5 10 15 20 25 30 35+ Temperature / °C

Clouds and Precipitation
Forecast for 2018-10-18 00:00 UTC. Updated 2 hours ago

Ground ~20,000 ft ~40,000 ft Winds

METAR

CYXZ 180000Z 34006KT 310V020 15SM FEW035 FEW040 M02/M09 A3023 RMK SC1SC1 SC TR LAST OBS/NEXT 181100 UTC SLP257

TAF

TAF CYXZ 171938Z 1720/1724 33010KT P6SM BKN040 TEMPO 1720/1724 5SM -SHSN BKN020 RMK NXT FCST WILL BE ISSUED AT 181245Z

Frequencies

Unicom 122.80 MHz CTAF/UNICOM
Warning: Do not use this data for real-world aviation or navigation. No guarantee of current accuracy is given.